Time,TemperatureF,DewpointF,PressureIn,WindDirection,WindDirectionDegrees,WindSpeedMPH,WindSpeedGustMPH,Humidity,HourlyPrecipIn,Conditions,Clouds,dailyrainin,SoftwareType,DateUTC
2013-10-02 00:03:00,54.5,49.8,29.96,NW,313,0.0,0.0,84,0.00,,,0.00,meteobridge,2013-10-02 07:03:00,
2013-10-02 00:09:00,54.3,49.6,29.96,NW,313,0.0,0.0,84,0.00,,,0.00,meteobridge,2013-10-02 07:09:00,
2013-10-02 00:15:00,54.1,49.8,29.96,NW,313,0.0,0.0,85,0.00,,,0.00,meteobridge,2013-10-02 07:15:00,
2013-10-02 00:21:00,54.0,49.6,29.96,NW,313,0.0,0.0,85,0.00,,,0.00,meteobridge,2013-10-02 07:21:00,
2013-10-02 00:27:00,53.8,49.5,29.96,NW,313,0.0,0.0,85,0.00,,,0.00,meteobridge,2013-10-02 07:27:00,
2013-10-02 00:34:00,53.4,49.3,29.96,NW,313,0.0,0.0,86,0.00,,,0.00,meteobridge,2013-10-02 07:34:00,
2013-10-02 00:40:00,52.9,48.7,29.96,NW,313,0.0,0.0,86,0.00,,,0.00,meteobridge,2013-10-02 07:40:00,
2013-10-02 00:46:00,52.9,49.5,29.96,NW,313,0.0,0.0,88,0.00,,,0.00,meteobridge,2013-10-02 07:46:00,
2013-10-02 00:52:00,53.1,49.3,29.96,NW,313,0.0,0.0,87,0.00,,,0.00,meteobridge,2013-10-02 07:52:00,
2013-10-02 00:58:00,53.1,49.3,29.96,NW,313,0.0,0.0,87,0.00,,,0.00,meteobridge,2013-10-02 07:58:00,
2013-10-02 01:05:00,52.9,49.1,29.96,NW,313,0.0,0.0,87,0.00,,,0.00,meteobridge,2013-10-02 08:05:00,
2013-10-02 01:11:00,52.5,48.7,29.96,NW,313,0.0,0.0,87,0.00,,,0.00,meteobridge,2013-10-02 08:11:00,
2013-10-02 01:17:00,52.5,49.1,29.96,NW,313,0.0,0.0,88,0.00,,,0.00,meteobridge,2013-10-02 08:17:00,
2013-10-02 01:23:00,52.5,48.7,29.96,NW,313,0.0,0.0,87,0.00,,,0.00,meteobridge,2013-10-02 08:23:00,
2013-10-02 01:29:00,52.5,48.4,29.96,NW,313,0.0,0.0,86,0.00,,,0.00,meteobridge,2013-10-02 08:29:00,
2013-10-02 01:36:00,52.5,48.7,29.96,NW,313,0.0,0.0,87,0.00,,,0.00,meteobridge,2013-10-02 08:36:00,
2013-10-02 01:42:00,52.5,48.7,29.96,NW,313,0.0,0.0,87,0.00,,,0.00,meteobridge,2013-10-02 08:42:00,
2013-10-02 01:48:00,52.3,48.6,29.96,NW,313,0.0,0.0,87,0.00,,,0.00,meteobridge,2013-10-02 08:48:00,
2013-10-02 01:54:00,52.2,48.7,29.96,NW,313,0.0,0.0,88,0.00,,,0.00,meteobridge,2013-10-02 08:54:00,
2013-10-02 02:00:00,51.6,48.2,29.96,NW,313,0.0,0.0,88,0.00,,,0.00,meteobridge,2013-10-02 09:00:00,
2013-10-02 02:07:00,51.4,48.4,29.96,NW,313,0.0,0.0,89,0.00,,,0.00,meteobridge,2013-10-02 09:07:00,
2013-10-02 02:13:00,51.4,48.4,29.96,NW,313,0.0,0.0,89,0.00,,,0.00,meteobridge,2013-10-02 09:13:00,
2013-10-02 02:19:00,51.3,48.2,29.96,NW,313,0.0,0.0,89,0.00,,,0.00,meteobridge,2013-10-02 09:19:00,
2013-10-02 02:25:00,51.1,48.2,29.96,NW,313,0.0,0.0,90,0.00,,,0.00,meteobridge,2013-10-02 09:25:00,
2013-10-02 02:32:00,50.7,47.8,29.96,NW,313,0.0,0.0,90,0.00,,,0.00,meteobridge,2013-10-02 09:32:00,
2013-10-02 02:38:00,50.5,47.7,29.96,NW,313,0.0,0.0,90,0.00,,,0.00,meteobridge,2013-10-02 09:38:00,
2013-10-02 02:44:00,50.5,47.7,29.96,NW,313,0.0,0.0,90,0.00,,,0.00,meteobridge,2013-10-02 09:44:00,
2013-10-02 02:50:00,50.5,48.0,29.96,NW,313,0.0,0.0,91,0.00,,,0.00,meteobridge,2013-10-02 09:50:00,
2013-10-02 02:56:00,50.5,47.7,29.96,NW,313,0.0,0.0,90,0.00,,,0.00,meteobridge,2013-10-02 09:56:00,
2013-10-02 03:02:00,50.5,48.0,29.95,NW,313,0.0,0.0,91,0.00,,,0.00,meteobridge,2013-10-02 10:02:00,
2013-10-02 03:09:00,50.5,47.7,29.96,NW,313,0.0,0.0,90,0.00,,,0.00,meteobridge,2013-10-02 10:09:00,
2013-10-02 03:15:00,50.5,47.7,29.96,NW,313,0.0,0.0,90,0.00,,,0.00,meteobridge,2013-10-02 10:15:00,
2013-10-02 03:21:00,50.4,47.5,29.96,NW,313,0.0,0.0,90,0.00,,,0.00,meteobridge,2013-10-02 10:21:00,
2013-10-02 03:27:00,50.5,47.7,29.96,NW,313,0.0,0.0,90,0.00,,,0.00,meteobridge,2013-10-02 10:27:00,
2013-10-02 03:33:00,50.4,47.5,29.96,NW,313,0.0,0.0,90,0.00,,,0.00,meteobridge,2013-10-02 10:33:00,
2013-10-02 03:40:00,50.2,47.3,29.96,NW,313,0.0,0.0,90,0.00,,,0.00,meteobridge,2013-10-02 10:40:00,
2013-10-02 03:46:00,50.0,47.5,29.96,NW,313,0.0,0.0,91,0.00,,,0.00,meteobridge,2013-10-02 10:46:00,
2013-10-02 03:52:00,50.2,47.3,29.96,NW,313,0.0,0.0,90,0.00,,,0.00,meteobridge,2013-10-02 10:52:00,
2013-10-02 03:58:00,50.0,47.1,29.96,NW,313,0.0,0.0,90,0.00,,,0.00,meteobridge,2013-10-02 10:58:00,
2013-10-02 04:04:00,50.0,47.5,29.96,NW,313,0.0,0.0,91,0.00,,,0.00,meteobridge,2013-10-02 11:04:00,
2013-10-02 04:11:00,50.0,47.5,29.96,NW,313,0.0,0.0,91,0.00,,,0.00,meteobridge,2013-10-02 11:11:00,
2013-10-02 04:17:00,50.0,47.1,29.96,NW,313,0.0,0.0,90,0.00,,,0.00,meteobridge,2013-10-02 11:17:00,
2013-10-02 04:23:00,49.8,46.9,29.96,NW,313,0.0,0.0,90,0.00,,,0.00,meteobridge,2013-10-02 11:23:00,
2013-10-02 04:29:00,49.6,46.8,29.96,NW,313,0.0,0.0,90,0.00,,,0.00,meteobridge,2013-10-02 11:29:00,
2013-10-02 04:35:00,49.5,46.9,29.96,NW,313,0.0,0.0,91,0.00,,,0.00,meteobridge,2013-10-02 11:35:00,
2013-10-02 04:42:00,49.5,46.9,29.96,NW,313,0.0,0.0,91,0.00,,,0.00,meteobridge,2013-10-02 11:42:00,
2013-10-02 04:48:00,49.1,46.6,29.96,NW,313,0.0,0.0,91,0.00,,,0.00,meteobridge,2013-10-02 11:48:00,
2013-10-02 04:54:00,48.9,46.8,29.96,NW,313,0.0,0.0,92,0.00,,,0.00,meteobridge,2013-10-02 11:54:00,
2013-10-02 05:00:00,49.1,46.6,29.96,NW,313,0.0,0.0,91,0.00,,,0.00,meteobridge,2013-10-02 12:00:00,
2013-10-02 05:06:00,49.1,46.6,29.96,NW,313,0.0,0.0,91,0.00,,,0.00,meteobridge,2013-10-02 12:06:00,
2013-10-02 05:13:00,49.1,46.6,29.96,NW,313,0.0,0.0,91,0.00,,,0.00,meteobridge,2013-10-02 12:13:00,
2013-10-02 05:19:00,48.9,46.4,29.96,NW,313,0.0,0.0,91,0.00,,,0.00,meteobridge,2013-10-02 12:19:00,
2013-10-02 05:25:00,48.6,46.4,29.97,NW,313,0.0,0.0,92,0.00,,,0.00,meteobridge,2013-10-02 12:25:00,
2013-10-02 05:31:00,48.4,46.2,29.97,NW,313,0.0,0.0,92,0.00,,,0.00,meteobridge,2013-10-02 12:31:00,
2013-10-02 05:38:00,48.6,46.4,29.97,NW,313,0.0,0.0,92,0.00,,,0.00,meteobridge,2013-10-02 12:38:00,
2013-10-02 05:44:00,48.6,46.4,29.97,NW,313,0.0,0.0,92,0.00,,,0.00,meteobridge,2013-10-02 12:44:00,
2013-10-02 05:50:00,48.6,46.4,29.97,NW,313,0.0,0.0,92,0.00,,,0.00,meteobridge,2013-10-02 12:50:00,
2013-10-02 05:56:00,48.6,46.4,29.97,NW,313,0.0,0.0,92,0.00,,,0.00,meteobridge,2013-10-02 12:56:00,
2013-10-02 06:02:00,48.6,46.4,29.98,NW,313,0.0,0.0,92,0.00,,,0.00,meteobridge,2013-10-02 13:02:00,
2013-10-02 06:09:00,48.4,46.2,29.98,NW,314,0.0,2.0,92,0.00,,,0.00,meteobridge,2013-10-02 13:09:00,
2013-10-02 06:15:00,48.6,46.4,29.98,NW,323,0.0,0.9,92,0.00,,,0.00,meteobridge,2013-10-02 13:15:00,
2013-10-02 06:21:00,48.6,46.4,29.98,NW,323,0.0,0.0,92,0.00,,,0.00,meteobridge,2013-10-02 13:21:00,
2013-10-02 06:27:00,48.6,46.4,29.98,NW,322,0.0,0.0,92,0.00,,,0.00,meteobridge,2013-10-02 13:27:00,
2013-10-02 06:33:00,48.4,46.4,29.98,NW,323,0.0,0.0,93,0.00,,,0.00,meteobridge,2013-10-02 13:33:00,
2013-10-02 06:40:00,48.2,46.0,29.98,NW,323,0.0,0.0,92,0.00,,,0.00,meteobridge,2013-10-02 13:40:00,
2013-10-02 06:46:00,48.0,46.0,29.98,NW,323,0.0,0.0,93,0.00,,,0.00,meteobridge,2013-10-02 13:46:00,
2013-10-02 06:52:00,48.4,46.4,29.98,NW,323,0.0,0.0,93,0.00,,,0.00,meteobridge,2013-10-02 13:52:00,
2013-10-02 06:58:00,48.4,46.4,29.98,NW,323,0.0,0.0,93,0.00,,,0.00,meteobridge,2013-10-02 13:58:00,
2013-10-02 07:04:00,48.0,45.9,29.98,NW,323,0.0,0.0,92,0.00,,,0.00,meteobridge,2013-10-02 14:04:00,
2013-10-02 07:11:00,48.0,45.9,29.99,NW,323,0.0,0.0,92,0.00,,,0.00,meteobridge,2013-10-02 14:11:00,
2013-10-02 07:17:00,48.0,46.0,29.99,NW,323,0.0,0.0,93,0.00,,,0.00,meteobridge,2013-10-02 14:17:00,
2013-10-02 07:23:00,48.4,46.4,29.99,NW,323,0.0,0.0,93,0.00,,,0.00,meteobridge,2013-10-02 14:23:00,
2013-10-02 07:29:00,48.9,46.9,29.99,NW,323,0.0,0.0,93,0.00,,,0.00,meteobridge,2013-10-02 14:29:00,
2013-10-02 07:35:00,50.0,47.5,29.99,NW,323,0.0,0.0,91,0.00,,,0.00,meteobridge,2013-10-02 14:35:00,
2013-10-02 07:42:00,51.1,48.0,29.99,NW,323,0.0,0.0,89,0.00,,,0.00,meteobridge,2013-10-02 14:42:00,
2013-10-02 07:48:00,52.0,48.2,29.99,NW,323,0.0,0.0,87,0.00,,,0.00,meteobridge,2013-10-02 14:48:00,
2013-10-02 07:54:00,53.1,48.7,29.99,NW,323,0.9,0.9,85,0.00,,,0.00,meteobridge,2013-10-02 14:54:00,
2013-10-02 08:00:00,52.9,48.2,30.00,NW,323,0.9,0.9,84,0.00,,,0.00,meteobridge,2013-10-02 15:00:00,
2013-10-02 08:06:00,52.9,48.6,30.00,NW,323,0.0,0.0,85,0.00,,,0.00,meteobridge,2013-10-02 15:06:00,
2013-10-02 08:13:00,53.1,48.4,30.00,NW,323,0.0,0.0,84,0.00,,,0.00,meteobridge,2013-10-02 15:13:00,
2013-10-02 08:19:00,53.2,48.6,30.00,NW,323,0.0,0.0,84,0.00,,,0.00,meteobridge,2013-10-02 15:19:00,
2013-10-02 08:25:00,53.2,48.6,30.00,NW,323,0.0,0.0,84,0.00,,,0.00,meteobridge,2013-10-02 15:25:00,
2013-10-02 08:31:00,53.2,48.6,30.01,NW,323,0.0,0.0,84,0.00,,,0.00,meteobridge,2013-10-02 15:31:00,
2013-10-02 08:37:00,53.2,48.9,30.01,NW,323,0.0,0.0,85,0.00,,,0.00,meteobridge,2013-10-02 15:37:00,
2013-10-02 08:44:00,53.4,49.1,30.01,NW,323,0.0,0.0,85,0.00,,,0.00,meteobridge,2013-10-02 15:44:00,
2013-10-02 08:46:00,53.6,48.9,30.01,NW,323,0.0,0.0,84,0.00,,,0.00,meteobridge,2013-10-02 15:46:00,
2013-10-02 08:52:00,54.1,49.1,30.01,East,82,0.0,0.9,83,0.00,,,0.00,meteobridge,2013-10-02 15:52:00,
2013-10-02 08:58:00,54.9,49.5,30.01,East,81,0.0,0.0,82,0.00,,,0.00,meteobridge,2013-10-02 15:58:00,
2013-10-02 09:04:00,55.2,49.8,30.02,East,80,0.0,0.0,82,0.00,,,0.00,meteobridge,2013-10-02 16:04:00,
2013-10-02 09:10:00,56.1,49.6,30.02,East,80,0.0,0.0,79,0.00,,,0.00,meteobridge,2013-10-02 16:10:00,
2013-10-02 09:16:00,58.3,51.1,30.02,East,81,0.9,0.9,77,0.00,,,0.00,meteobridge,2013-10-02 16:16:00,
2013-10-02 09:23:00,59.7,50.7,30.02,NNW,346,0.9,0.9,72,0.00,,,0.00,meteobridge,2013-10-02 16:23:00,
2013-10-02 09:29:00,60.8,50.5,30.02,NNE,30,0.0,0.9,69,0.00,,,0.00,meteobridge,2013-10-02 16:29:00,
2013-10-02 09:35:00,61.0,50.4,30.02,East,98,0.9,0.9,68,0.00,,,0.00,meteobridge,2013-10-02 16:35:00,
2013-10-02 09:42:00,61.9,51.3,30.02,East,94,0.9,0.9,68,0.00,,,0.00,meteobridge,2013-10-02 16:42:00,
2013-10-02 09:48:00,62.6,51.4,30.02,East,93,0.9,0.9,67,0.00,,,0.00,meteobridge,2013-10-02 16:48:00,
2013-10-02 09:54:00,63.0,51.4,30.02,ESE,113,2.0,2.0,66,0.00,,,0.00,meteobridge,2013-10-02 16:54:00,
2013-10-02 10:00:00,62.8,50.4,30.02,East,99,0.0,2.9,64,0.00,,,0.00,meteobridge,2013-10-02 17:00:00,
2013-10-02 10:06:00,63.5,50.7,30.02,ESE,104,0.9,2.0,63,0.00,,,0.00,meteobridge,2013-10-02 17:06:00,
2013-10-02 10:12:00,64.2,50.5,30.02,ENE,74,0.9,2.0,61,0.00,,,0.00,meteobridge,2013-10-02 17:12:00,
2013-10-02 10:18:00,64.9,50.7,30.03,East,96,0.9,2.0,60,0.00,,,0.00,meteobridge,2013-10-02 17:18:00,
2013-10-02 10:24:00,66.2,50.9,30.03,East,85,0.9,2.0,58,0.00,,,0.00,meteobridge,2013-10-02 17:24:00,
2013-10-02 10:31:00,66.7,51.1,30.03,ENE,72,2.0,2.0,57,0.00,,,0.00,meteobridge,2013-10-02 17:31:00,
2013-10-02 10:37:00,67.3,50.5,30.03,SSE,159,0.0,0.9,55,0.00,,,0.00,meteobridge,2013-10-02 17:37:00,
2013-10-02 10:43:00,67.8,50.5,30.02,SW,217,2.0,2.9,54,0.00,,,0.00,meteobridge,2013-10-02 17:43:00,
2013-10-02 10:50:00,68.0,50.7,30.02,East,81,0.0,2.0,54,0.00,,,0.00,meteobridge,2013-10-02 17:50:00,
2013-10-02 10:56:00,68.5,50.2,30.02,ESE,114,4.0,6.0,52,0.00,,,0.00,meteobridge,2013-10-02 17:56:00,
2013-10-02 11:02:00,68.9,50.0,30.02,East,81,2.0,2.9,51,0.00,,,0.00,meteobridge,2013-10-02 18:02:00,
2013-10-02 11:08:00,69.4,50.0,30.01,ESE,109,0.9,4.0,50,0.00,,,0.00,meteobridge,2013-10-02 18:08:00,
2013-10-02 11:14:00,70.0,48.7,30.01,NNE,31,2.9,4.0,47,0.00,,,0.00,meteobridge,2013-10-02 18:14:00,
2013-10-02 11:20:00,70.3,48.6,30.01,SE,143,2.9,4.0,46,0.00,,,0.00,meteobridge,2013-10-02 18:20:00,
2013-10-02 11:26:00,71.1,48.0,30.01,ESE,122,0.0,2.9,44,0.00,,,0.00,meteobridge,2013-10-02 18:26:00,
2013-10-02 11:32:00,71.6,48.6,30.01,WNW,282,0.9,2.0,44,0.00,,,0.00,meteobridge,2013-10-02 18:32:00,
2013-10-02 11:38:00,71.4,48.4,30.01,NW,323,0.0,0.9,44,0.00,,,0.00,meteobridge,2013-10-02 18:38:00,
2013-10-02 11:45:00,72.3,49.1,30.01,East,81,0.0,2.9,44,0.00,,,0.00,meteobridge,2013-10-02 18:45:00,
2013-10-02 11:51:00,73.0,49.3,30.01,ENE,67,2.0,2.0,43,0.00,,,0.00,meteobridge,2013-10-02 18:51:00,
2013-10-02 11:57:00,73.0,48.6,30.00,NE,44,0.9,4.9,42,0.00,,,0.00,meteobridge,2013-10-02 18:57:00,
2013-10-02 12:03:00,73.0,48.6,30.00,West,280,0.0,0.9,42,0.00,,,0.00,meteobridge,2013-10-02 19:03:00,
2013-10-02 12:09:00,74.1,48.9,30.00,West,267,0.0,2.0,41,0.00,,,0.00,meteobridge,2013-10-02 19:09:00,
2013-10-02 12:15:00,74.8,48.9,30.00,WNW,294,2.0,4.9,40,0.00,,,0.00,meteobridge,2013-10-02 19:15:00,
2013-10-02 12:21:00,75.4,49.5,30.00,WSW,245,4.0,4.0,40,0.00,,,0.00,meteobridge,2013-10-02 19:21:00,
2013-10-02 12:27:00,74.7,49.5,30.00,SW,224,2.0,4.0,41,0.00,,,0.00,meteobridge,2013-10-02 19:27:00,
2013-10-02 12:33:00,74.5,48.6,30.00,WSW,241,6.0,6.0,40,0.00,,,0.00,meteobridge,2013-10-02 19:33:00,
2013-10-02 12:39:00,74.1,48.2,30.00,West,269,2.9,6.0,40,0.00,,,0.00,meteobridge,2013-10-02 19:39:00,
2013-10-02 12:45:00,74.1,48.2,29.99,SW,235,4.9,8.1,40,0.00,,,0.00,meteobridge,2013-10-02 19:45:00,
2013-10-02 12:51:00,74.8,48.9,29.99,West,278,4.0,10.1,40,0.00,,,0.00,meteobridge,2013-10-02 19:51:00,
2013-10-02 12:57:00,74.7,50.0,29.99,SW,231,4.9,6.0,42,0.00,,,0.00,meteobridge,2013-10-02 19:57:00,
2013-10-02 13:03:00,75.0,48.4,29.99,WSW,253,4.9,8.9,39,0.00,,,0.00,meteobridge,2013-10-02 20:03:00,
2013-10-02 13:09:00,74.7,47.3,29.98,SSW,198,6.9,10.1,38,0.00,,,0.00,meteobridge,2013-10-02 20:09:00,
2013-10-02 13:16:00,74.8,48.2,29.98,SW,214,4.0,8.1,39,0.00,,,0.00,meteobridge,2013-10-02 20:16:00,
2013-10-02 13:22:00,75.0,46.9,29.98,West,265,6.0,8.9,37,0.00,,,0.00,meteobridge,2013-10-02 20:22:00,
2013-10-02 13:28:00,75.4,47.3,29.98,WSW,243,8.1,11.0,37,0.00,,,0.00,meteobridge,2013-10-02 20:28:00,
2013-10-02 13:34:00,75.4,47.3,29.98,West,263,4.9,8.9,37,0.00,,,0.00,meteobridge,2013-10-02 20:34:00,
2013-10-02 13:40:00,75.0,46.9,29.97,West,272,4.0,8.1,37,0.00,,,0.00,meteobridge,2013-10-02 20:40:00,
2013-10-02 13:46:00,75.6,46.8,29.97,West,259,8.9,10.1,36,0.00,,,0.00,meteobridge,2013-10-02 20:46:00,
2013-10-02 13:52:00,75.4,46.6,29.97,SSW,212,4.9,8.9,36,0.00,,,0.00,meteobridge,2013-10-02 20:52:00,
2013-10-02 13:58:00,75.0,46.9,29.96,WSW,254,4.0,8.1,37,0.00,,,0.00,meteobridge,2013-10-02 20:58:00,
2013-10-02 14:04:00,75.4,47.3,29.96,WSW,248,2.0,4.9,37,0.00,,,0.00,meteobridge,2013-10-02 21:04:00,
2013-10-02 14:10:00,75.7,46.9,29.96,West,271,8.1,12.1,36,0.00,,,0.00,meteobridge,2013-10-02 21:10:00,
2013-10-02 14:16:00,75.7,46.9,29.96,WNW,285,6.0,11.0,36,0.00,,,0.00,meteobridge,2013-10-02 21:16:00,
2013-10-02 14:22:00,75.6,45.1,29.96,WNW,294,4.0,13.0,34,0.00,,,0.00,meteobridge,2013-10-02 21:22:00,
2013-10-02 14:28:00,75.6,46.0,29.96,West,266,8.9,10.1,35,0.00,,,0.00,meteobridge,2013-10-02 21:28:00,
2013-10-02 14:34:00,75.2,47.1,29.95,West,264,6.0,12.1,37,0.00,,,0.00,meteobridge,2013-10-02 21:34:00,
2013-10-02 14:40:00,75.4,46.6,29.95,West,264,8.1,14.1,36,0.00,,,0.00,meteobridge,2013-10-02 21:40:00,
2013-10-02 14:46:00,74.8,47.5,29.95,SW,231,4.9,14.1,38,0.00,,,0.00,meteobridge,2013-10-02 21:46:00,
2013-10-02 14:52:00,75.2,47.8,29.96,West,261,8.1,11.0,38,0.00,,,0.00,meteobridge,2013-10-02 21:52:00,
2013-10-02 14:58:00,75.0,47.7,29.95,West,270,6.9,11.0,38,0.00,,,0.00,meteobridge,2013-10-02 21:58:00,
2013-10-02 15:04:00,74.7,48.7,29.95,West,280,8.1,15.0,40,0.00,,,0.00,meteobridge,2013-10-02 22:04:00,
2013-10-02 15:10:00,74.1,49.6,29.96,West,271,10.1,16.1,42,0.00,,,0.00,meteobridge,2013-10-02 22:10:00,
2013-10-02 15:16:00,73.9,49.5,29.96,WSW,253,8.1,11.0,42,0.00,,,0.00,meteobridge,2013-10-02 22:16:00,
2013-10-02 15:22:00,73.8,48.6,29.96,West,259,6.9,15.0,41,0.00,,,0.00,meteobridge,2013-10-02 22:22:00,
2013-10-02 15:28:00,73.4,48.9,29.95,WSW,251,11.0,12.1,42,0.00,,,0.00,meteobridge,2013-10-02 22:28:00,
2013-10-02 15:34:00,73.0,49.3,29.95,SW,229,15.0,15.0,43,0.00,,,0.00,meteobridge,2013-10-02 22:34:00,
2013-10-02 15:40:00,72.7,50.2,29.95,WSW,238,13.0,16.1,45,0.00,,,0.00,meteobridge,2013-10-02 22:40:00,
2013-10-02 15:46:00,72.9,50.4,29.95,WSW,245,4.0,11.0,45,0.00,,,0.00,meteobridge,2013-10-02 22:46:00,
2013-10-02 15:52:00,72.7,50.2,29.95,WSW,240,6.0,14.1,45,0.00,,,0.00,meteobridge,2013-10-02 22:52:00,
2013-10-02 15:58:00,72.1,50.2,29.95,SW,221,11.0,12.1,46,0.00,,,0.00,meteobridge,2013-10-02 22:58:00,
2013-10-02 16:04:00,71.4,50.2,29.96,SW,217,10.1,14.1,47,0.00,,,0.00,meteobridge,2013-10-02 23:04:00,
2013-10-02 16:10:00,71.2,50.0,29.96,SW,221,6.9,15.0,47,0.00,,,0.00,meteobridge,2013-10-02 23:10:00,
2013-10-02 16:16:00,71.2,49.5,29.96,WSW,244,17.0,17.0,46,0.00,,,0.00,meteobridge,2013-10-02 23:16:00,
2013-10-02 16:22:00,71.1,48.6,29.96,SW,234,6.9,13.0,45,0.00,,,0.00,meteobridge,2013-10-02 23:22:00,
2013-10-02 16:28:00,70.9,47.8,29.96,WSW,246,8.1,14.1,44,0.00,,,0.00,meteobridge,2013-10-02 23:28:00,
2013-10-02 16:34:00,70.7,46.4,29.96,WSW,245,11.0,16.1,42,0.00,,,0.00,meteobridge,2013-10-02 23:34:00,
2013-10-02 16:40:00,70.2,46.0,29.96,WSW,253,13.0,13.0,42,0.00,,,0.00,meteobridge,2013-10-02 23:40:00,
2013-10-02 16:46:00,70.2,44.8,29.96,West,261,6.9,12.1,40,0.00,,,0.00,meteobridge,2013-10-02 23:46:00,
2013-10-02 16:52:00,70.0,45.9,29.96,WSW,248,11.0,13.0,42,0.00,,,0.00,meteobridge,2013-10-02 23:52:00,
2013-10-02 16:54:00,70.0,45.9,29.96,SW,228,12.1,14.1,42,0.00,,,0.00,meteobridge,2013-10-02 23:54:00,
2013-10-02 17:00:00,70.0,47.1,29.96,WSW,245,8.9,11.0,44,0.00,,,0.00,meteobridge,2013-10-03 00:00:00,
2013-10-02 17:06:00,70.0,47.1,29.96,SW,232,6.0,8.9,44,0.00,,,0.00,meteobridge,2013-10-03 00:06:00,
2013-10-02 17:12:00,69.6,47.3,29.96,SSW,211,12.1,12.1,45,0.00,,,0.00,meteobridge,2013-10-03 00:12:00,
2013-10-02 17:19:00,69.4,47.1,29.96,West,264,10.1,15.0,45,0.00,,,0.00,meteobridge,2013-10-03 00:19:00,
2013-10-02 17:25:00,69.1,47.5,29.96,WSW,240,6.0,11.0,46,0.00,,,0.00,meteobridge,2013-10-03 00:25:00,
2013-10-02 17:31:00,69.1,47.5,29.96,West,262,8.1,15.0,46,0.00,,,0.00,meteobridge,2013-10-03 00:31:00,
2013-10-02 17:37:00,68.5,47.5,29.96,SSW,195,4.9,13.0,47,0.00,,,0.00,meteobridge,2013-10-03 00:37:00,
2013-10-02 17:43:00,68.4,47.3,29.96,SSW,202,6.9,12.1,47,0.00,,,0.00,meteobridge,2013-10-03 00:43:00,
2013-10-02 17:49:00,67.6,47.3,29.96,WSW,243,8.9,12.1,48,0.00,,,0.00,meteobridge,2013-10-03 00:49:00,
2013-10-02 17:55:00,67.5,47.1,29.96,SW,235,2.9,11.0,48,0.00,,,0.00,meteobridge,2013-10-03 00:55:00,
2013-10-02 18:01:00,66.9,46.6,29.96,WSW,252,4.0,11.0,48,0.00,,,0.00,meteobridge,2013-10-03 01:01:00,
2013-10-02 18:07:00,66.7,46.4,29.96,SSE,159,8.9,11.0,48,0.00,,,0.00,meteobridge,2013-10-03 01:07:00,
2013-10-02 18:13:00,66.6,46.2,29.96,South,188,4.0,8.1,48,0.00,,,0.00,meteobridge,2013-10-03 01:13:00,
2013-10-02 18:19:00,66.0,46.4,29.96,West,259,4.9,11.0,49,0.00,,,0.00,meteobridge,2013-10-03 01:19:00,
2013-10-02 18:25:00,65.5,46.4,29.96,West,259,6.9,12.1,50,0.00,,,0.00,meteobridge,2013-10-03 01:25:00,
2013-10-02 18:31:00,64.8,46.2,29.96,WSW,254,4.9,12.1,51,0.00,,,0.00,meteobridge,2013-10-03 01:31:00,
2013-10-02 18:37:00,64.2,47.3,29.96,WSW,238,2.9,11.0,54,0.00,,,0.00,meteobridge,2013-10-03 01:37:00,
2013-10-02 18:43:00,63.7,47.3,29.96,WSW,248,4.9,12.1,55,0.00,,,0.00,meteobridge,2013-10-03 01:43:00,
2013-10-02 18:49:00,63.1,47.1,29.96,SW,236,0.9,6.0,56,0.00,,,0.00,meteobridge,2013-10-03 01:49:00,
2013-10-02 18:55:00,62.8,47.3,29.96,SW,226,0.0,4.0,57,0.00,,,0.00,meteobridge,2013-10-03 01:55:00,
2013-10-02 19:01:00,62.4,47.5,29.96,West,264,4.9,4.9,58,0.00,,,0.00,meteobridge,2013-10-03 02:01:00,
2013-10-02 19:07:00,62.1,47.5,29.97,West,266,2.0,4.9,59,0.00,,,0.00,meteobridge,2013-10-03 02:07:00,
2013-10-02 19:11:00,61.9,47.8,29.97,SSW,200,2.0,8.1,60,0.00,,,0.00,meteobridge,2013-10-03 02:11:00,
2013-10-02 19:17:00,61.5,48.0,29.97,West,262,4.0,6.0,61,0.00,,,0.00,meteobridge,2013-10-03 02:17:00,
2013-10-02 19:23:00,61.3,47.8,29.97,SW,236,0.0,4.0,61,0.00,,,0.00,meteobridge,2013-10-03 02:23:00,
2013-10-02 19:29:00,61.0,47.8,29.97,SE,131,0.9,0.9,62,0.00,,,0.00,meteobridge,2013-10-03 02:29:00,
2013-10-02 19:36:00,60.4,47.8,29.97,SSW,208,0.0,2.0,63,0.00,,,0.00,meteobridge,2013-10-03 02:36:00,
2013-10-02 19:42:00,60.3,48.0,29.97,South,179,0.0,0.9,64,0.00,,,0.00,meteobridge,2013-10-03 02:42:00,
2013-10-02 19:49:00,59.9,48.0,29.97,NNW,327,0.9,4.0,65,0.00,,,0.00,meteobridge,2013-10-03 02:49:00,
2013-10-02 19:55:00,59.7,48.4,29.97,South,190,2.9,6.9,66,0.00,,,0.00,meteobridge,2013-10-03 02:55:00,
2013-10-02 20:01:00,59.7,48.4,29.98,SSW,195,4.9,6.0,66,0.00,,,0.00,meteobridge,2013-10-03 03:01:00,
2013-10-02 20:07:00,59.7,48.4,29.98,SW,226,8.9,11.0,66,0.00,,,0.00,meteobridge,2013-10-03 03:07:00,
2013-10-02 20:13:00,59.7,48.0,29.98,West,266,2.0,6.9,65,0.00,,,0.00,meteobridge,2013-10-03 03:13:00,
2013-10-02 20:19:00,59.9,47.7,29.98,SW,233,2.0,4.9,64,0.00,,,0.00,meteobridge,2013-10-03 03:19:00,
2013-10-02 20:25:00,59.9,47.7,29.99,SW,236,0.9,2.0,64,0.00,,,0.00,meteobridge,2013-10-03 03:25:00,
2013-10-02 20:31:00,59.5,47.8,29.99,SSW,211,0.9,2.9,65,0.00,,,0.00,meteobridge,2013-10-03 03:31:00,
2013-10-02 20:37:00,59.5,48.2,29.99,WSW,242,0.0,4.9,66,0.00,,,0.00,meteobridge,2013-10-03 03:37:00,
2013-10-02 20:43:00,59.2,48.2,29.99,WSW,258,2.9,4.9,67,0.00,,,0.00,meteobridge,2013-10-03 03:43:00,
2013-10-02 20:49:00,58.6,48.6,29.99,WSW,255,4.9,6.9,69,0.00,,,0.00,meteobridge,2013-10-03 03:49:00,
2013-10-02 20:55:00,58.5,48.4,29.99,WSW,238,2.9,4.0,69,0.00,,,0.00,meteobridge,2013-10-03 03:55:00,
2013-10-02 21:01:00,58.3,48.6,30.00,SSW,208,0.9,2.9,70,0.00,,,0.00,meteobridge,2013-10-03 04:01:00,
2013-10-02 21:03:00,58.1,48.4,30.00,South,188,0.9,4.0,70,0.00,,,0.00,meteobridge,2013-10-03 04:03:00,
2013-10-02 21:05:00,57.9,48.6,30.00,SSW,198,0.9,2.0,71,0.00,,,0.00,meteobridge,2013-10-03 04:05:00,
2013-10-02 21:11:00,57.7,48.4,30.00,SW,217,0.9,0.9,71,0.00,,,0.00,meteobridge,2013-10-03 04:11:00,
2013-10-02 21:17:00,57.6,48.6,30.00,SW,224,0.9,2.0,72,0.00,,,0.00,meteobridge,2013-10-03 04:17:00,
2013-10-02 21:24:00,57.2,48.6,30.00,SW,236,0.0,0.0,73,0.00,,,0.00,meteobridge,2013-10-03 04:24:00,
2013-10-02 21:26:00,57.0,48.0,30.00,SW,236,0.0,0.0,72,0.00,,,0.00,meteobridge,2013-10-03 04:26:00,
2013-10-02 21:32:00,56.7,48.0,30.01,SW,228,0.9,2.9,73,0.00,,,0.00,meteobridge,2013-10-03 04:32:00,
2013-10-02 21:39:00,57.0,48.0,30.01,SW,236,0.0,0.9,72,0.00,,,0.00,meteobridge,2013-10-03 04:39:00,
2013-10-02 21:45:00,56.8,47.8,30.01,WSW,257,0.0,2.9,72,0.00,,,0.00,meteobridge,2013-10-03 04:45:00,
2013-10-02 21:51:00,56.8,47.8,30.01,WSW,245,0.0,0.9,72,0.00,,,0.00,meteobridge,2013-10-03 04:51:00,
2013-10-02 21:57:00,56.5,48.0,30.01,West,265,2.0,2.0,73,0.00,,,0.00,meteobridge,2013-10-03 04:57:00,
2013-10-02 22:01:00,56.5,48.4,30.01,SW,220,2.0,6.9,74,0.00,,,0.00,meteobridge,2013-10-03 05:01:00,
2013-10-02 22:07:00,56.5,48.4,30.01,WSW,238,4.0,6.9,74,0.00,,,0.00,meteobridge,2013-10-03 05:07:00,
2013-10-02 22:13:00,56.5,48.4,30.01,WSW,240,4.9,6.0,74,0.00,,,0.00,meteobridge,2013-10-03 05:13:00,
2013-10-02 22:19:00,56.3,48.6,30.01,West,262,2.0,2.9,75,0.00,,,0.00,meteobridge,2013-10-03 05:19:00,
2013-10-02 22:25:00,56.5,48.7,30.01,WSW,241,0.9,2.0,75,0.00,,,0.00,meteobridge,2013-10-03 05:25:00,
2013-10-02 22:31:00,56.5,48.7,30.01,West,275,0.9,2.0,75,0.00,,,0.00,meteobridge,2013-10-03 05:31:00,
2013-10-02 22:38:00,56.5,48.9,30.01,SW,219,2.9,6.0,76,0.00,,,0.00,meteobridge,2013-10-03 05:38:00,
2013-10-02 22:44:00,56.5,48.9,30.02,West,264,2.0,4.9,76,0.00,,,0.00,meteobridge,2013-10-03 05:44:00,
2013-10-02 22:50:00,56.1,48.7,30.02,SW,232,0.0,0.9,76,0.00,,,0.00,meteobridge,2013-10-03 05:50:00,
2013-10-02 22:56:00,55.9,48.9,30.02,WSW,243,0.9,2.9,77,0.00,,,0.00,meteobridge,2013-10-03 05:56:00,
2013-10-02 23:02:00,55.8,48.7,30.02,SW,232,6.0,8.1,77,0.00,,,0.00,meteobridge,2013-10-03 06:02:00,
2013-10-02 23:08:00,55.9,48.9,30.02,SW,219,2.9,6.9,77,0.00,,,0.00,meteobridge,2013-10-03 06:08:00,
2013-10-02 23:14:00,56.1,48.7,30.01,SW,236,0.9,4.9,76,0.00,,,0.00,meteobridge,2013-10-03 06:14:00,
2013-10-02 23:20:00,56.3,48.9,30.01,SW,230,4.0,4.0,76,0.00,,,0.00,meteobridge,2013-10-03 06:20:00,
2013-10-02 23:26:00,56.1,48.7,30.01,SW,236,0.0,4.9,76,0.00,,,0.00,meteobridge,2013-10-03 06:26:00,
2013-10-02 23:32:00,55.9,48.6,30.01,SW,233,0.9,4.0,76,0.00,,,0.00,meteobridge,2013-10-03 06:32:00,
2013-10-02 23:38:00,55.8,48.4,30.01,WSW,254,2.0,4.9,76,0.00,,,0.00,meteobridge,2013-10-03 06:38:00,
2013-10-02 23:44:00,55.8,48.4,30.01,West,269,2.0,4.9,76,0.00,,,0.00,meteobridge,2013-10-03 06:44:00,
2013-10-02 23:50:00,55.8,48.4,30.01,West,265,0.9,4.9,76,0.00,,,0.00,meteobridge,2013-10-03 06:50:00,
2013-10-02 23:56:00,55.8,48.4,30.02,WNW,288,0.0,0.9,76,0.00,,,0.00,meteobridge,2013-10-03 06:56:00,